Addison, Vermont
Current Conditions -  °F | °C
As of 12:35 AM on Sunday 21 Dec 2014 (Local Time) from K6B0 Reporting Station
Overcast Overcast  
Wind Chill: 17°   Ceiling: 3700
Heat Index: 17°   Visibility: 10mi
Dew Point: 17°   Wind: 0mph
Humidity: 100%   Direction: NA
Pressure: 30.3"   Gusts: NA
Location:  44.0804°N, 73.3324°W
Report Text: K6B0 210535Z AUTO 00000KT 10SM OVC037 M08/M08 A3030 RMK AO2 T10831083
Loading
Personal Weather Stations






























Interactive Weather Map New forecast layout! Learn more

10-Day Weather Forecast

Advertisements
Track Severe Weather on mobile